Time;durP1;ratioP1;P1;durP2;ratioP2;P2;SDS_P1;SDS_P2;PMS_P1;PMS_P2;Temp;Humidity;BMP_temperature;BMP_pressure;BME280_temperature;BME280_humidity;BME280_pressure;Samples;Min_cycle;Max_cycle;Signal;HPM_P1;HPM_P2
2024/01/09 00:00:09;;;;;;;4.90;2.17;;;-1.00;85.90;;;;;;4993160;28;20088;-76
2024/01/09 00:02:35;;;;;;;4.28;1.83;;;-1.00;85.30;;;;;;4992898;28;20045;-76
2024/01/09 00:05:01;;;;;;;4.38;2.30;;;-0.90;85.90;;;;;;4976431;28;20038;-77
2024/01/09 00:07:26;;;;;;;6.70;2.15;;;-1.00;84.90;;;;;;4993505;28;20026;-77
2024/01/09 00:09:52;;;;;;;4.22;1.90;;;-1.00;85.60;;;;;;4993267;28;20031;-77
2024/01/09 00:12:18;;;;;;;4.07;1.75;;;-1.00;85.20;;;;;;4993147;28;20104;-77
2024/01/09 00:14:43;;;;;;;4.85;2.20;;;-1.10;85.50;;;;;;4977028;28;20100;-77
2024/01/09 00:17:09;;;;;;;5.28;1.70;;;-1.00;85.40;;;;;;4976323;28;20072;-76
2024/01/09 00:19:35;;;;;;;4.65;2.08;;;-1.10;85.30;;;;;;4992804;28;20072;-76
2024/01/09 00:22:02;;;;;;;4.72;2.15;;;-1.00;85.60;;;;;;4976479;28;20046;-76
2024/01/09 00:24:28;;;;;;;4.35;1.80;;;-1.00;85.60;;;;;;4992540;28;20022;-76
2024/01/09 00:26:55;;;;;;;4.03;1.77;;;-1.00;85.50;;;;;;4992694;28;20038;-76
2024/01/09 00:29:20;;;;;;;4.47;2.30;;;-1.00;85.20;;;;;;4992604;28;20076;-77
2024/01/09 00:31:46;;;;;;;5.60;2.20;;;-1.00;84.90;;;;;;4976311;28;20121;-76
2024/01/09 00:34:12;;;;;;;3.05;1.60;;;-1.00;84.80;;;;;;4993861;28;20177;-77
2024/01/09 00:36:44;;;;;;;4.00;1.75;;;-1.10;85.40;;;;;;4992703;28;20490;-76
2024/01/09 00:39:13;;;;;;;3.77;1.70;;;-1.20;85.40;;;;;;4992238;28;20034;-76
2024/01/09 00:41:39;;;;;;;4.97;1.80;;;-1.20;85.70;;;;;;4976053;28;20297;-78
2024/01/09 00:44:04;;;;;;;4.57;1.67;;;-1.10;85.80;;;;;;4976557;28;20149;-76
2024/01/09 00:46:30;;;;;;;6.32;1.70;;;-1.10;85.90;;;;;;4993827;28;20030;-76
2024/01/09 00:48:56;;;;;;;4.78;1.52;;;-1.10;84.50;;;;;;4992839;28;20050;-76
2024/01/09 00:51:21;;;;;;;4.13;1.60;;;-1.20;85.70;;;;;;4992064;28;20030;-76
2024/01/09 00:53:47;;;;;;;3.80;2.03;;;-1.10;85.30;;;;;;4992761;28;20027;-76
2024/01/09 00:56:13;;;;;;;4.93;1.50;;;-1.20;85.10;;;;;;4976506;28;20126;-76
2024/01/09 00:58:38;;;;;;;2.92;1.60;;;-1.10;85.30;;;;;;4991985;28;20030;-77
2024/01/09 01:01:04;;;;;;;4.13;1.98;;;-1.10;84.70;;;;;;4993438;28;20034;-77
2024/01/09 01:03:30;;;;;;;5.78;1.70;;;-1.10;85.00;;;;;;4992509;28;20176;-76
2024/01/09 01:05:56;;;;;;;3.65;1.67;;;-1.20;84.80;;;;;;4992063;28;20054;-77
2024/01/09 01:08:21;;;;;;;2.40;1.48;;;-1.20;85.10;;;;;;4975849;28;20473;-77
2024/01/09 01:10:48;;;;;;;4.00;1.88;;;-1.10;85.00;;;;;;4991866;28;20117;-76
2024/01/09 01:13:14;;;;;;;3.78;1.77;;;-1.00;84.70;;;;;;4991798;28;20057;-76
2024/01/09 01:15:39;;;;;;;2.78;1.30;;;-1.00;84.30;;;;;;4991884;28;20111;-77
2024/01/09 01:18:05;;;;;;;3.50;1.65;;;-1.00;84.50;;;;;;4975504;28;20109;-74
2024/01/09 01:20:31;;;;;;;3.05;1.40;;;-1.00;85.30;;;;;;4991594;28;20094;-77
2024/01/09 01:22:57;;;;;;;2.72;1.40;;;-1.20;84.90;;;;;;4975630;28;20034;-76
2024/01/09 01:25:22;;;;;;;3.85;1.95;;;-1.30;85.90;;;;;;4991568;28;20034;-76
2024/01/09 01:27:48;;;;;;;5.60;1.77;;;-1.50;85.60;;;;;;4991405;28;20034;-77
2024/01/09 01:30:14;;;;;;;3.03;1.38;;;-1.50;86.10;;;;;;4975505;28;20038;-76
2024/01/09 01:32:40;;;;;;;5.32;1.70;;;-1.30;86.30;;;;;;4993023;28;20026;-76
2024/01/09 01:35:06;;;;;;;3.50;1.77;;;-1.30;86.10;;;;;;4992672;28;20539;-76
2024/01/09 01:37:31;;;;;;;5.35;1.60;;;-1.30;86.10;;;;;;4991706;28;20034;-76
2024/01/09 01:39:57;;;;;;;2.80;1.38;;;-1.30;86.00;;;;;;4991928;28;20126;-76
2024/01/09 01:42:23;;;;;;;4.20;1.80;;;-1.20;86.00;;;;;;4992997;28;20075;-76
2024/01/09 01:44:49;;;;;;;3.80;2.00;;;-1.20;86.00;;;;;;4992673;28;20042;-76
2024/01/09 01:47:15;;;;;;;3.70;1.73;;;-1.20;86.30;;;;;;4991988;28;20461;-76
2024/01/09 01:49:42;;;;;;;3.03;1.70;;;-1.20;86.20;;;;;;4992863;28;20551;-76
2024/01/09 01:52:09;;;;;;;4.07;1.60;;;-1.20;86.80;;;;;;4995369;28;20049;-76
2024/01/09 01:54:37;;;;;;;4.95;1.60;;;-1.10;86.60;;;;;;4995059;28;20026;-76
2024/01/09 01:57:04;;;;;;;3.75;2.22;;;-1.10;86.40;;;;;;4996449;28;20041;-79
2024/01/09 01:59:32;;;;;;;6.65;1.67;;;-1.20;86.40;;;;;;4998273;28;20499;-76
2024/01/09 02:01:59;;;;;;;4.90;2.20;;;-1.20;86.50;;;;;;4996594;28;20055;-76
2024/01/09 02:04:25;;;;;;;4.45;1.98;;;-1.40;87.00;;;;;;4996223;28;20022;-75
2024/01/09 02:06:52;;;;;;;4.43;1.90;;;-1.40;87.40;;;;;;4979026;28;20030;-75
2024/01/09 02:09:18;;;;;;;5.18;2.20;;;-1.40;87.70;;;;;;4995097;28;20038;-75
2024/01/09 02:11:46;;;;;;;4.22;1.65;;;-1.40;88.40;;;;;;4995545;28;20092;-76
2024/01/09 02:14:12;;;;;;;6.15;2.13;;;-1.30;88.40;;;;;;4979260;28;20362;-76
2024/01/09 02:16:38;;;;;;;3.95;2.05;;;-1.40;87.90;;;;;;4996036;28;20122;-76
2024/01/09 02:19:03;;;;;;;4.03;2.20;;;-1.50;89.10;;;;;;4996814;28;20051;-76
2024/01/09 02:21:29;;;;;;;6.40;2.03;;;-1.50;90.20;;;;;;4994593;28;20046;-76
2024/01/09 02:23:55;;;;;;;5.00;1.85;;;-1.50;89.00;;;;;;4996523;28;20038;-76
2024/01/09 02:26:24;;;;;;;5.05;1.88;;;-1.60;89.20;;;;;;4994637;28;20045;-76
2024/01/09 02:28:56;;;;;;;6.15;2.20;;;-1.70;89.30;;;;;;4994622;28;20030;-76
2024/01/09 02:31:22;;;;;;;4.35;2.42;;;-1.70;90.10;;;;;;4995805;28;20038;-76
2024/01/09 02:33:48;;;;;;;4.43;1.98;;;-1.70;90.00;;;;;;4994639;28;20030;-76
2024/01/09 02:36:13;;;;;;;4.28;1.92;;;-1.70;90.00;;;;;;4994359;28;20026;-76
2024/01/09 02:38:39;;;;;;;5.47;2.63;;;-1.80;90.10;;;;;;4994316;28;20030;-76
2024/01/09 02:41:05;;;;;;;4.43;2.35;;;-2.00;90.30;;;;;;4995403;28;20081;-76
2024/01/09 02:43:31;;;;;;;4.95;2.05;;;-2.00;90.40;;;;;;4995777;28;20034;-76
2024/01/09 02:45:57;;;;;;;4.82;2.20;;;-2.00;90.50;;;;;;4994446;28;20496;-76
2024/01/09 02:48:22;;;;;;;4.10;2.20;;;-2.10;90.60;;;;;;4978559;28;20088;-76
2024/01/09 02:50:48;;;;;;;4.55;2.10;;;-2.00;90.70;;;;;;4994570;28;20584;-76
2024/01/09 02:53:14;;;;;;;5.95;2.28;;;-2.10;90.80;;;;;;4978264;28;20022;-76
2024/01/09 02:55:39;;;;;;;4.90;1.90;;;-2.00;90.80;;;;;;4995236;28;20030;-76
2024/01/09 02:58:05;;;;;;;5.20;2.10;;;-2.10;90.80;;;;;;4995672;28;20061;-76
2024/01/09 03:00:31;;;;;;;5.50;2.60;;;-2.20;91.30;;;;;;4993854;28;20429;-76
2024/01/09 03:02:56;;;;;;;5.05;2.00;;;-2.10;91.10;;;;;;4993659;28;20033;-76
2024/01/09 03:05:23;;;;;;;4.05;1.92;;;-2.10;91.30;;;;;;4994304;28;20046;-76
2024/01/09 03:07:49;;;;;;;6.75;2.70;;;-2.10;90.80;;;;;;4993769;28;20042;-76
2024/01/09 03:10:15;;;;;;;4.50;2.25;;;-2.00;90.90;;;;;;4995629;28;20371;-76
2024/01/09 03:12:40;;;;;;;3.97;2.30;;;-2.10;90.90;;;;;;4993940;28;20117;-76
2024/01/09 03:15:06;;;;;;;5.20;2.08;;;-2.10;90.80;;;;;;4993587;28;20128;-76
2024/01/09 03:17:32;;;;;;;5.03;2.17;;;-2.10;91.00;;;;;;4993935;28;20082;-76
2024/01/09 03:19:58;;;;;;;5.82;2.05;;;-2.10;90.80;;;;;;4994358;28;20089;-76
2024/01/09 03:22:23;;;;;;;6.47;2.38;;;-2.10;90.90;;;;;;4977500;28;20388;-76
2024/01/09 03:24:49;;;;;;;4.95;2.53;;;-2.10;90.90;;;;;;4993638;28;20066;-77
2024/01/09 03:27:15;;;;;;;3.70;2.30;;;-2.20;91.20;;;;;;4995242;28;20369;-75
2024/01/09 03:29:40;;;;;;;6.10;2.63;;;-2.20;91.20;;;;;;4996764;28;20047;-75
2024/01/09 03:32:06;;;;;;;5.47;1.95;;;-2.10;90.80;;;;;;4996148;28;20033;-75
2024/01/09 03:34:32;;;;;;;6.13;2.35;;;-2.10;90.80;;;;;;4998675;28;20061;-75
2024/01/09 03:36:58;;;;;;;5.90;2.72;;;-2.10;90.90;;;;;;4998397;28;20110;-74
2024/01/09 03:39:23;;;;;;;3.95;2.53;;;-2.10;91.10;;;;;;4995067;28;20031;-74
2024/01/09 03:41:49;;;;;;;4.60;2.60;;;-2.00;90.90;;;;;;4994531;28;20400;-74
2024/01/09 03:44:15;;;;;;;3.95;2.10;;;-2.00;90.60;;;;;;4994620;28;20369;-75
2024/01/09 03:46:41;;;;;;;3.63;1.98;;;-2.10;90.80;;;;;;4995296;28;20022;-75
2024/01/09 03:49:06;;;;;;;4.68;2.40;;;-2.10;90.70;;;;;;4994804;28;20145;-75
2024/01/09 03:51:32;;;;;;;5.53;2.50;;;-2.10;91.00;;;;;;4994130;28;20441;-76
2024/01/09 03:53:58;;;;;;;4.80;2.53;;;-2.20;90.80;;;;;;4994567;28;20445;-75
2024/01/09 03:56:24;;;;;;;5.07;2.78;;;-2.20;91.00;;;;;;4993341;28;20027;-75
2024/01/09 03:58:51;;;;;;;5.15;2.38;;;-2.10;90.80;;;;;;4994853;28;20033;-75
2024/01/09 04:01:17;;;;;;;3.95;2.15;;;-2.20;90.70;;;;;;4977023;28;20065;-75
2024/01/09 04:03:42;;;;;;;6.80;2.97;;;-2.20;90.80;;;;;;4994936;28;20034;-75
2024/01/09 04:06:08;;;;;;;5.75;2.80;;;-2.30;90.70;;;;;;4995265;28;20431;-75
2024/01/09 04:08:34;;;;;;;5.97;2.53;;;-2.30;91.10;;;;;;4995010;28;20040;-75
2024/01/09 04:11:03;;;;;;;5.78;2.80;;;-2.40;91.00;;;;;;4977175;28;20500;-75
2024/01/09 04:13:28;;;;;;;4.50;2.13;;;-2.40;91.20;;;;;;4993962;28;20039;-75
2024/01/09 04:15:54;;;;;;;6.78;2.95;;;-2.50;91.00;;;;;;4993047;28;20429;-75
2024/01/09 04:18:20;;;;;;;4.72;2.38;;;-2.50;91.10;;;;;;4993023;28;20050;-75
2024/01/09 04:20:45;;;;;;;7.07;2.72;;;-2.50;91.20;;;;;;4994364;28;20033;-74
2024/01/09 04:23:11;;;;;;;4.85;2.70;;;-2.50;90.80;;;;;;4994190;28;20491;-75
2024/01/09 04:25:36;;;;;;;3.75;2.05;;;-2.50;90.90;;;;;;4994403;28;20077;-74
2024/01/09 04:28:02;;;;;;;6.75;2.33;;;-2.40;90.70;;;;;;4993376;28;20031;-75
2024/01/09 04:30:28;;;;;;;8.52;2.72;;;-2.40;90.50;;;;;;4993037;28;20097;-75
2024/01/09 04:32:54;;;;;;;5.57;2.42;;;-2.30;90.10;;;;;;4993856;28;20046;-74
2024/01/09 04:35:19;;;;;;;5.50;2.65;;;-2.20;89.90;;;;;;4992902;28;20390;-74
2024/01/09 04:37:45;;;;;;;5.03;2.22;;;-2.10;89.20;;;;;;4994135;28;20041;-74
2024/01/09 04:40:11;;;;;;;7.70;2.13;;;-2.20;89.30;;;;;;4994159;28;20357;-74
2024/01/09 04:42:36;;;;;;;5.32;2.50;;;-2.10;89.40;;;;;;4993055;28;20129;-74
2024/01/09 04:45:02;;;;;;;5.03;2.42;;;-2.10;89.30;;;;;;4992713;28;20488;-75
2024/01/09 04:47:28;;;;;;;3.83;2.22;;;-2.10;89.00;;;;;;4993068;28;20042;-74
2024/01/09 04:49:53;;;;;;;7.82;3.15;;;-2.10;89.30;;;;;;4993908;28;20081;-74
2024/01/09 04:52:19;;;;;;;6.05;3.08;;;-2.00;89.30;;;;;;4993841;28;20046;-75
2024/01/09 04:54:45;;;;;;;3.58;2.00;;;-2.00;89.00;;;;;;4994003;28;20420;-74
2024/01/09 04:57:10;;;;;;;4.95;2.55;;;-2.00;88.30;;;;;;4992700;28;20110;-74
2024/01/09 04:59:36;;;;;;;7.32;2.72;;;-2.10;88.20;;;;;;4993756;28;20022;-75
2024/01/09 05:02:02;;;;;;;4.50;2.30;;;-2.10;88.30;;;;;;4992888;28;20031;-74
2024/01/09 05:04:31;;;;;;;5.10;2.75;;;-2.20;88.40;;;;;;4993405;28;20027;-74
2024/01/09 05:06:57;;;;;;;4.97;2.65;;;-2.20;88.10;;;;;;4992133;28;20038;-75
2024/01/09 05:09:23;;;;;;;8.63;3.25;;;-2.30;88.30;;;;;;4993524;28;20041;-75
2024/01/09 05:11:49;;;;;;;5.90;2.63;;;-2.20;88.50;;;;;;4992248;28;20034;-75
2024/01/09 05:14:14;;;;;;;4.70;2.50;;;-2.20;88.30;;;;;;4992476;28;20036;-74
2024/01/09 05:16:40;;;;;;;4.60;2.30;;;-2.20;88.50;;;;;;4993242;28;20030;-74
2024/01/09 05:19:05;;;;;;;5.95;2.78;;;-2.20;88.10;;;;;;4992902;28;20093;-74
2024/01/09 05:21:31;;;;;;;5.13;2.83;;;-2.10;88.00;;;;;;4976109;28;20366;-75
2024/01/09 05:23:57;;;;;;;4.32;2.50;;;-2.00;87.70;;;;;;4993340;28;20465;-75
2024/01/09 05:26:22;;;;;;;4.78;2.53;;;-2.10;87.50;;;;;;4992731;28;20030;-74
2024/01/09 05:28:48;;;;;;;4.88;2.55;;;-2.10;88.20;;;;;;4993466;28;20441;-74
2024/01/09 05:31:14;;;;;;;5.10;2.65;;;-2.10;87.40;;;;;;4993041;28;20408;-74
2024/01/09 05:33:39;;;;;;;5.85;2.95;;;-2.10;87.30;;;;;;4992682;28;20022;-75
2024/01/09 05:36:06;;;;;;;9.52;3.10;;;-2.10;87.10;;;;;;4991678;28;20037;-75
2024/01/09 05:38:32;;;;;;;5.57;2.60;;;-2.00;87.30;;;;;;4993426;28;20093;-75
2024/01/09 05:40:58;;;;;;;6.57;2.97;;;-2.00;86.90;;;;;;4992213;28;20042;-74
2024/01/09 05:43:24;;;;;;;5.43;3.00;;;-2.10;86.60;;;;;;4993172;28;20488;-74
2024/01/09 05:45:49;;;;;;;5.20;3.20;;;-2.20;87.00;;;;;;4993018;28;20030;-75
2024/01/09 05:48:15;;;;;;;8.18;3.30;;;-2.30;87.70;;;;;;4991955;28;20031;-74
2024/01/09 05:50:41;;;;;;;5.88;2.95;;;-2.30;87.70;;;;;;4993299;28;20085;-74
2024/01/09 05:53:07;;;;;;;6.28;2.88;;;-2.40;88.00;;;;;;4991715;28;20232;-74
2024/01/09 05:55:33;;;;;;;6.88;3.65;;;-2.30;88.40;;;;;;4993326;28;20057;-74
2024/01/09 05:57:59;;;;;;;5.13;2.88;;;-2.30;88.50;;;;;;4993423;28;20576;-75
2024/01/09 06:00:24;;;;;;;4.47;2.50;;;-2.20;89.20;;;;;;4993843;28;20036;-75
2024/01/09 06:02:51;;;;;;;7.18;3.05;;;-2.00;91.50;;;;;;4992940;28;20495;-75
2024/01/09 06:05:17;;;;;;;5.38;3.00;;;-1.80;90.50;;;;;;4992899;28;20429;-74
2024/01/09 06:07:43;;;;;;;5.75;3.00;;;-1.90;90.30;;;;;;4991908;28;20057;-75
2024/01/09 06:10:09;;;;;;;6.90;2.95;;;-1.80;90.00;;;;;;4993364;28;20034;-74
2024/01/09 06:12:35;;;;;;;8.32;3.30;;;-1.80;90.00;;;;;;4993367;28;20041;-75
2024/01/09 06:15:00;;;;;;;7.55;3.80;;;-1.80;88.40;;;;;;4993416;28;20038;-76
2024/01/09 06:17:26;;;;;;;5.15;3.30;;;-1.80;87.70;;;;;;4992918;28;20055;-74
2024/01/09 06:19:52;;;;;;;7.82;3.45;;;-1.90;88.50;;;;;;4995073;28;20141;-76
2024/01/09 06:22:18;;;;;;;6.15;3.28;;;-1.80;90.10;;;;;;4993767;28;20039;-72
2024/01/09 06:24:43;;;;;;;6.30;2.78;;;-1.70;90.20;;;;;;4996370;28;20125;-75
2024/01/09 06:27:09;;;;;;;7.63;3.30;;;-1.50;90.20;;;;;;4994074;28;20030;-72
2024/01/09 06:29:35;;;;;;;5.65;3.17;;;-1.50;87.10;;;;;;4994559;28;20089;-71
2024/01/09 06:32:00;;;;;;;6.65;3.53;;;-1.60;86.10;;;;;;4993707;28;20042;-71
2024/01/09 06:34:26;;;;;;;8.02;3.90;;;-1.50;90.80;;;;;;4993077;28;20042;-72
2024/01/09 06:36:52;;;;;;;6.55;2.95;;;-1.40;89.10;;;;;;4994988;28;20035;-72
2024/01/09 06:39:18;;;;;;;9.20;3.75;;;-1.50;88.70;;;;;;4995163;28;20092;-72
2024/01/09 06:41:44;;;;;;;6.20;3.78;;;-1.50;87.90;;;;;;4996177;28;20050;-76
2024/01/09 06:44:10;;;;;;;9.52;4.03;;;-1.50;88.30;;;;;;4996523;28;20030;-76
2024/01/09 06:46:35;;;;;;;7.88;3.65;;;-1.70;86.60;;;;;;4995616;28;20034;-75
2024/01/09 06:49:01;;;;;;;6.47;3.67;;;-1.70;88.40;;;;;;4996182;28;20035;-75
2024/01/09 06:51:28;;;;;;;9.00;3.63;;;-1.70;87.50;;;;;;4995373;28;20658;-74
2024/01/09 06:53:54;;;;;;;6.32;3.47;;;-1.60;87.10;;;;;;4995843;28;20066;-78
2024/01/09 06:56:20;;;;;;;7.70;3.70;;;-1.80;86.40;;;;;;4995782;28;20041;-73
2024/01/09 06:58:45;;;;;;;6.25;3.55;;;-2.00;86.50;;;;;;4978417;28;20038;-73
2024/01/09 07:01:11;;;;;;;7.10;3.45;;;-2.10;86.50;;;;;;4995948;28;20034;-73
2024/01/09 07:03:37;;;;;;;10.15;3.75;;;-2.10;87.50;;;;;;4996106;28;20030;-74
2024/01/09 07:06:03;;;;;;;6.40;3.58;;;-2.20;87.30;;;;;;4979255;28;20125;-72
2024/01/09 07:08:29;;;;;;;8.63;4.25;;;-2.10;89.70;;;;;;4995882;28;20030;-74
2024/01/09 07:10:56;;;;;;;7.57;3.80;;;-2.10;87.00;;;;;;4978643;28;20480;-74
2024/01/09 07:13:22;;;;;;;6.03;2.88;;;-2.20;86.90;;;;;;4996348;28;20030;-74
2024/01/09 07:15:48;;;;;;;8.77;3.85;;;-2.40;88.20;;;;;;4995840;28;20366;-74
2024/01/09 07:18:14;;;;;;;7.97;3.28;;;-2.50;86.90;;;;;;4995524;28;20065;-75
2024/01/09 07:20:39;;;;;;;6.25;3.33;;;-2.50;87.10;;;;;;4995917;28;20031;-74
2024/01/09 07:23:05;;;;;;;7.05;3.70;;;-2.40;88.00;;;;;;4996090;28;20041;-72
2024/01/09 07:25:31;;;;;;;7.57;3.70;;;-2.30;87.70;;;;;;4995768;28;20500;-72
2024/01/09 07:27:56;;;;;;;6.25;3.13;;;-2.20;88.80;;;;;;4995263;28;20077;-72
2024/01/09 07:30:22;;;;;;;10.57;3.70;;;-2.30;86.00;;;;;;4995545;28;20030;-72
2024/01/09 07:32:48;;;;;;;8.55;4.10;;;-2.40;86.10;;;;;;4995815;28;20038;-73
2024/01/09 07:35:14;;;;;;;7.80;3.63;;;-2.50;86.80;;;;;;4994411;28;20034;-72
2024/01/09 07:37:39;;;;;;;7.30;3.75;;;-2.60;86.90;;;;;;4995164;28;20436;-73
2024/01/09 07:40:05;;;;;;;7.97;3.60;;;-2.50;89.30;;;;;;4995071;28;20061;-72
2024/01/09 07:42:31;;;;;;;9.50;3.47;;;-2.50;88.10;;;;;;4994065;28;20036;-71
2024/01/09 07:44:57;;;;;;;8.13;3.58;;;-2.30;88.80;;;;;;4994021;28;20384;-72
2024/01/09 07:47:23;;;;;;;6.10;3.30;;;-2.20;86.30;;;;;;4993547;28;20034;-71
2024/01/09 07:49:49;;;;;;;7.47;3.03;;;-2.30;86.10;;;;;;4994201;28;20033;-71
2024/01/09 07:52:15;;;;;;;8.85;3.25;;;-2.10;88.20;;;;;;4995254;28;20086;-71
2024/01/09 07:54:41;;;;;;;7.05;3.45;;;-2.10;86.20;;;;;;4995167;28;20124;-71
2024/01/09 07:57:07;;;;;;;7.65;3.67;;;-2.20;84.50;;;;;;4995193;28;20038;-70
2024/01/09 07:59:33;;;;;;;5.15;2.90;;;-2.00;87.40;;;;;;4993885;28;20030;-71
2024/01/09 08:02:00;;;;;;;8.23;3.40;;;-1.90;85.60;;;;;;4994789;28;20038;-71
2024/01/09 08:04:26;;;;;;;6.07;3.45;;;-1.80;83.90;;;;;;4994986;28;20038;-71
2024/01/09 08:06:52;;;;;;;8.70;4.25;;;-1.90;84.70;;;;;;4994772;28;20072;-74
2024/01/09 08:09:18;;;;;;;7.22;3.75;;;-1.90;82.40;;;;;;4993786;28;20042;-73
2024/01/09 08:11:47;;;;;;;7.22;3.40;;;-1.80;85.10;;;;;;4995145;28;20089;-74
2024/01/09 08:14:13;;;;;;;5.97;3.03;;;-1.90;82.80;;;;;;4994345;28;20125;-75
2024/01/09 08:16:40;;;;;;;6.95;3.78;;;-1.80;84.10;;;;;;4994891;28;20460;-74
2024/01/09 08:19:06;;;;;;;6.75;3.60;;;-1.70;83.30;;;;;;4993179;28;20053;-75
2024/01/09 08:21:34;;;;;;;7.35;3.30;;;-1.80;82.80;;;;;;4994821;28;20034;-74
2024/01/09 08:24:00;;;;;;;6.78;3.22;;;-1.70;83.50;;;;;;4993504;28;20038;-73
2024/01/09 08:26:25;;;;;;;6.32;3.30;;;-1.60;84.00;;;;;;4994865;28;20033;-71
2024/01/09 08:28:51;;;;;;;5.35;2.75;;;-1.40;83.20;;;;;;4994284;28;20030;-73
2024/01/09 08:31:17;;;;;;;5.60;3.00;;;-1.30;82.30;;;;;;4993937;28;20109;-72
2024/01/09 08:33:43;;;;;;;7.05;3.08;;;-1.10;84.60;;;;;;4994418;28;20041;-75
2024/01/09 08:36:08;;;;;;;7.10;3.60;;;-1.00;81.80;;;;;;4994006;28;20027;-73
2024/01/09 08:38:34;;;;;;;7.03;3.53;;;-0.80;81.60;;;;;;4994254;28;20069;-72
2024/01/09 08:41:02;;;;;;;6.50;2.42;;;-0.70;80.70;;;;;;4994484;28;20042;-76
2024/01/09 08:43:28;;;;;;;10.20;3.30;;;-0.60;80.30;;;;;;4994277;28;20057;-77
2024/01/09 08:45:54;;;;;;;9.18;3.72;;;-0.50;78.70;;;;;;4994232;28;20031;-75
2024/01/09 08:48:20;;;;;;;5.47;2.67;;;-0.70;75.80;;;;;;4994663;28;20038;-76
2024/01/09 08:50:45;;;;;;;6.30;2.70;;;-0.80;78.20;;;;;;4998499;28;20033;-76
2024/01/09 08:53:11;;;;;;;6.03;3.17;;;-0.70;78.00;;;;;;4999744;28;20022;-76
2024/01/09 08:55:37;;;;;;;4.32;2.53;;;-0.70;77.50;;;;;;4999468;28;20364;-77
2024/01/09 08:58:03;;;;;;;4.55;2.45;;;-0.60;76.10;;;;;;4997649;28;20424;-80
2024/01/09 09:00:28;;;;;;;6.45;2.92;;;-0.70;75.70;;;;;;5000513;28;20038;-77
2024/01/09 09:02:54;;;;;;;6.95;3.35;;;-0.70;76.60;;;;;;4996947;28;20113;-77
2024/01/09 09:05:20;;;;;;;5.03;2.65;;;-0.70;76.10;;;;;;4995725;28;20455;-77
2024/01/09 09:07:46;;;;;;;5.28;2.42;;;-0.70;76.10;;;;;;4995129;28;20038;-78
2024/01/09 09:10:11;;;;;;;4.65;2.30;;;-0.60;75.50;;;;;;4994444;28;20049;-78
2024/01/09 09:12:37;;;;;;;5.88;2.78;;;-0.40;77.00;;;;;;4993938;28;20472;-77
2024/01/09 09:15:03;;;;;;;5.40;2.47;;;-0.20;76.70;;;;;;4994052;28;20037;-77
2024/01/09 09:17:30;;;;;;;6.22;2.70;;;0.00;76.10;;;;;;4992485;28;20030;-77
2024/01/09 09:19:56;;;;;;;5.88;2.88;;;0.20;74.20;;;;;;4994911;28;20031;-77
2024/01/09 09:22:25;;;;;;;3.92;2.30;;;0.20;73.40;;;;;;4993968;28;20041;-78
2024/01/09 09:24:52;;;;;;;4.72;2.30;;;0.30;72.80;;;;;;4976771;28;20054;-77
2024/01/09 09:27:18;;;;;;;5.28;2.20;;;0.50;74.30;;;;;;4976496;28;20102;-77
2024/01/09 09:29:43;;;;;;;5.35;2.58;;;0.60;73.20;;;;;;4993953;28;20385;-76
2024/01/09 09:32:09;;;;;;;3.90;2.00;;;0.50;69.80;;;;;;4993210;28;20085;-76
2024/01/09 09:34:34;;;;;;;6.57;3.10;;;0.40;71.30;;;;;;4992142;28;20036;-78
2024/01/09 09:37:00;;;;;;;7.20;2.90;;;0.50;71.00;;;;;;4994352;28;20377;-77
2024/01/09 09:39:26;;;;;;;5.68;2.67;;;0.30;70.00;;;;;;4993551;28;20070;-76
2024/01/09 09:41:59;;;;;;;7.25;2.90;;;0.10;70.50;;;;;;4993930;28;20034;-77
2024/01/09 09:44:26;;;;;;;7.43;3.67;;;0.00;71.20;;;;;;4994035;28;20424;-77
2024/01/09 09:46:52;;;;;;;5.93;2.92;;;0.00;72.70;;;;;;4992409;28;20057;-75
2024/01/09 09:49:24;;;;;;;5.25;3.25;;;0.10;73.30;;;;;;4993628;28;20205;-75
2024/01/09 09:51:56;;;;;;;6.40;3.25;;;0.10;72.00;;;;;;4993399;28;20042;-76
2024/01/09 09:54:23;;;;;;;7.47;3.10;;;0.20;71.20;;;;;;4992330;28;20030;-74
2024/01/09 09:56:49;;;;;;;5.05;2.72;;;0.10;72.30;;;;;;4991634;28;20073;-72
2024/01/09 09:59:15;;;;;;;5.20;2.45;;;0.00;71.10;;;;;;4993043;28;20132;-77
2024/01/09 10:01:43;;;;;;;5.25;2.67;;;0.00;71.40;;;;;;4993668;28;20038;-75
2024/01/09 10:04:18;;;;;;;7.32;3.10;;;0.10;72.60;;;;;;4993354;28;20161;-73
2024/01/09 10:06:46;;;;;;;6.75;3.15;;;0.30;72.10;;;;;;4991615;28;20027;-73
2024/01/09 10:09:14;;;;;;;5.05;2.60;;;0.40;70.00;;;;;;4993010;28;20027;-75
2024/01/09 10:11:40;;;;;;;6.15;2.95;;;0.30;69.10;;;;;;4994562;28;20128;-74
2024/01/09 10:14:11;;;;;;;6.38;2.67;;;0.30;71.90;;;;;;4995756;28;20530;-76
2024/01/09 10:16:54;;;;;;;5.97;3.22;;;0.50;71.50;;;;;;4996989;28;20031;-76
2024/01/09 10:19:22;;;;;;;6.78;2.75;;;0.60;69.80;;;;;;4995217;28;20140;-72
2024/01/09 10:21:48;;;;;;;5.10;2.75;;;0.80;70.00;;;;;;4997456;28;20043;-72
2024/01/09 10:24:15;;;;;;;5.45;2.67;;;1.00;71.70;;;;;;4997051;28;20113;-74
2024/01/09 10:26:42;;;;;;;7.88;3.05;;;1.00;67.60;;;;;;4996481;28;20479;-71
2024/01/09 10:29:11;;;;;;;5.13;2.70;;;0.90;68.80;;;;;;4995230;28;20031;-72
2024/01/09 10:31:41;;;;;;;4.88;2.70;;;1.10;69.80;;;;;;4997167;28;20054;-70
2024/01/09 10:34:07;;;;;;;5.30;2.92;;;1.10;67.70;;;;;;4996312;28;20116;-69
2024/01/09 10:36:33;;;;;;;6.25;2.60;;;1.10;68.80;;;;;;4995490;28;20461;-70
2024/01/09 10:39:04;;;;;;;4.38;2.40;;;1.20;69.20;;;;;;4996489;28;20030;-70
2024/01/09 10:41:29;;;;;;;4.70;2.75;;;1.40;66.60;;;;;;4996836;28;20033;-70
2024/01/09 10:43:55;;;;;;;6.88;2.40;;;1.30;68.30;;;;;;4996644;28;20377;-73
2024/01/09 10:46:25;;;;;;;5.68;2.38;;;1.30;68.00;;;;;;4996621;28;20066;-73
2024/01/09 10:48:51;;;;;;;5.60;2.78;;;1.40;66.70;;;;;;4996307;28;20466;-70
2024/01/09 10:51:18;;;;;;;7.20;2.30;;;1.50;68.00;;;;;;4995852;28;20053;-73
2024/01/09 10:53:47;;;;;;;5.75;2.80;;;1.60;66.90;;;;;;4996064;28;20109;-70
2024/01/09 10:56:17;;;;;;;4.88;2.70;;;1.60;65.60;;;;;;4996344;28;20252;-72
2024/01/09 10:58:46;;;;;;;4.15;2.30;;;1.60;65.50;;;;;;4996572;28;20030;-72
2024/01/09 11:01:13;;;;;;;4.47;2.47;;;1.70;67.30;;;;;;4995994;28;20033;-73
2024/01/09 11:03:39;;;;;;;2.85;2.10;;;1.80;64.90;;;;;;4995938;28;20096;-72
2024/01/09 11:06:07;;;;;;;5.22;2.47;;;1.80;64.70;;;;;;4996128;28;20117;-73
2024/01/09 11:08:36;;;;;;;4.78;2.90;;;1.90;65.60;;;;;;4996115;28;20116;-72
2024/01/09 11:11:13;;;;;;;4.43;2.30;;;2.00;64.30;;;;;;4994268;28;20051;-73
2024/01/09 11:13:42;;;;;;;5.43;2.50;;;1.80;64.80;;;;;;4996119;28;20101;-73
2024/01/09 11:16:10;;;;;;;4.50;2.20;;;2.00;66.20;;;;;;4995093;28;20377;-71
2024/01/09 11:18:37;;;;;;;4.53;2.00;;;2.20;64.70;;;;;;4998151;28;20066;-71
2024/01/09 11:21:04;;;;;;;4.95;2.47;;;2.20;63.10;;;;;;4997983;28;20105;-71
2024/01/09 11:23:52;;;;;;;4.82;2.60;;;2.00;62.10;;;;;;4995306;28;20030;-73
2024/01/09 11:26:19;;;;;;;4.32;2.17;;;1.80;62.90;;;;;;4996740;28;20476;-72
2024/01/09 11:28:48;;;;;;;7.65;2.60;;;1.80;63.40;;;;;;4997868;28;20077;-73
2024/01/09 11:31:20;;;;;;;7.00;2.15;;;1.90;62.90;;;;;;4995486;28;20097;-71
2024/01/09 11:33:48;;;;;;;4.60;2.03;;;1.90;63.00;;;;;;4995715;28;20089;-73
2024/01/09 11:36:24;;;;;;;7.10;3.13;;;1.80;62.60;;;;;;4995958;28;20037;-83
2024/01/09 11:38:52;;;;;;;4.68;2.30;;;1.70;62.90;;;;;;4996622;28;20026;-77
2024/01/09 11:41:17;;;;;;;5.28;2.45;;;1.80;62.40;;;;;;4978629;28;20129;-76
2024/01/09 11:44:11;;;;;;;3.83;2.13;;;2.00;63.50;;;;;;4995333;28;20512;-72
2024/01/09 11:46:38;;;;;;;6.82;2.55;;;2.10;64.10;;;;;;4993463;28;20424;-79
2024/01/09 11:49:06;;;;;;;3.88;2.17;;;2.20;62.10;;;;;;4995346;28;20109;-72
2024/01/09 11:51:33;;;;;;;4.78;2.05;;;2.30;62.70;;;;;;4994903;28;20035;-71
2024/01/09 11:54:00;;;;;;;4.30;2.35;;;2.40;61.10;;;;;;4995423;28;20388;-70
2024/01/09 11:56:26;;;;;;;4.22;2.08;;;2.30;59.80;;;;;;4994374;28;20424;-71
2024/01/09 11:58:53;;;;;;;3.63;2.08;;;2.00;60.30;;;;;;4995022;28;20030;-72
2024/01/09 12:01:22;;;;;;;3.80;2.15;;;2.00;62.00;;;;;;4995147;28;20045;-73
2024/01/09 12:03:55;;;;;;;4.95;1.83;;;2.10;61.40;;;;;;4993728;28;20041;-71
2024/01/09 12:06:22;;;;;;;5.75;1.90;;;2.10;61.10;;;;;;4994687;28;20092;-72
2024/01/09 12:08:49;;;;;;;7.97;2.70;;;2.10;62.10;;;;;;4994822;28;20035;-72
2024/01/09 12:11:15;;;;;;;6.10;2.65;;;2.30;60.70;;;;;;4994938;28;20045;-72
2024/01/09 12:13:42;;;;;;;4.18;2.33;;;2.40;61.70;;;;;;4993466;28;20034;-73
2024/01/09 12:16:34;;;;;;;4.72;2.17;;;2.50;59.30;;;;;;4994103;28;20030;-72
2024/01/09 12:19:00;;;;;;;3.70;2.10;;;2.50;59.90;;;;;;4991341;28;20061;-73
2024/01/09 12:21:29;;;;;;;2.80;1.40;;;2.70;60.90;;;;;;4994619;28;20030;-72
2024/01/09 12:23:56;;;;;;;5.25;2.45;;;2.70;59.40;;;;;;4992852;28;20027;-79
2024/01/09 12:26:23;;;;;;;4.00;1.63;;;2.80;57.40;;;;;;4994750;28;20023;-77
2024/01/09 12:28:49;;;;;;;2.83;1.50;;;2.80;57.60;;;;;;4994607;28;20121;-75
2024/01/09 12:31:17;;;;;;;4.07;1.77;;;2.80;59.20;;;;;;4994497;28;20099;-73
2024/01/09 12:33:44;;;;;;;6.47;2.40;;;2.90;58.10;;;;;;4993818;28;20037;-73
2024/01/09 12:36:10;;;;;;;3.63;1.77;;;2.90;57.70;;;;;;4993187;28;20030;-72
2024/01/09 12:38:36;;;;;;;3.70;1.85;;;3.00;57.30;;;;;;4994170;28;20030;-72
2024/01/09 12:41:04;;;;;;;3.50;1.95;;;2.90;56.20;;;;;;4993043;28;20034;-73
2024/01/09 12:43:30;;;;;;;3.78;1.85;;;2.80;56.30;;;;;;4992993;28;20066;-72
2024/01/09 12:45:59;;;;;;;4.18;2.05;;;2.90;56.00;;;;;;4994139;28;20030;-72